Time;durP1;ratioP1;P1;durP2;ratioP2;P2;SDS_P1;SDS_P2;PMS_P1;PMS_P2;Temp;Humidity;BMP_temperature;BMP_pressure;BME280_temperature;BME280_humidity;BME280_pressure;Samples;Min_cycle;Max_cycle;Signal;HPM_P1;HPM_P2
2023/12/15 00:02:59;;;;;;;24.67;10.48;;;;;;;3.84;100.00;102343.50;6275139;28;20080;-73
2023/12/15 00:06:02;;;;;;;22.70;9.30;;;;;;;3.83;100.00;102351.31;6275177;28;20049;-71
2023/12/15 00:09:05;;;;;;;30.08;9.25;;;;;;;3.88;100.00;102352.19;6275088;28;20053;-72
2023/12/15 00:12:06;;;;;;;24.48;9.18;;;;;;;3.88;100.00;102349.59;6275402;28;20179;-72
2023/12/15 00:15:08;;;;;;;24.73;9.13;;;;;;;3.83;100.00;102351.31;6274951;28;20056;-72
2023/12/15 00:18:09;;;;;;;22.48;9.27;;;;;;;3.88;100.00;102353.06;6271076;28;20046;-71
2023/12/15 00:21:11;;;;;;;24.73;9.75;;;;;;;3.90;100.00;102358.25;6270529;28;20053;-73
2023/12/15 00:24:13;;;;;;;24.13;9.13;;;;;;;3.90;100.00;102366.03;6262806;28;20445;-71
2023/12/15 00:27:15;;;;;;;21.00;7.97;;;;;;;3.90;100.00;102359.09;6275174;28;20045;-72
2023/12/15 00:30:16;;;;;;;21.52;8.68;;;;;;;3.94;100.00;102362.59;6274150;28;20476;-73
2023/12/15 00:33:17;;;;;;;25.80;9.98;;;;;;;3.94;100.00;102366.03;6274609;28;20056;-73
2023/12/15 00:36:19;;;;;;;24.25;8.50;;;;;;;3.93;100.00;102359.13;6274593;28;20044;-71
2023/12/15 00:39:21;;;;;;;26.10;9.18;;;;;;;4.01;100.00;102366.94;6275097;28;20056;-73
2023/12/15 00:42:23;;;;;;;29.13;9.50;;;;;;;3.99;100.00;102373.84;6274812;28;20064;-73
2023/12/15 00:45:24;;;;;;;23.38;8.88;;;;;;;3.96;100.00;102368.66;6259745;28;20057;-73
2023/12/15 00:48:25;;;;;;;25.75;9.48;;;;;;;4.01;100.00;102373.00;6249826;28;20056;-72
2023/12/15 00:51:27;;;;;;;27.17;11.38;;;;;;;3.92;100.00;102383.41;6250111;28;20050;-73
2023/12/15 00:54:29;;;;;;;26.15;9.25;;;;;;;3.90;100.00;102382.50;6251626;28;20438;-73
2023/12/15 00:57:31;;;;;;;21.42;9.38;;;;;;;4.01;100.00;102387.75;6254994;28;20046;-72
2023/12/15 01:00:32;;;;;;;27.42;9.48;;;;;;;4.03;100.00;102389.44;6254750;28;20053;-73
2023/12/15 01:03:34;;;;;;;20.48;9.60;;;;;;;4.06;100.00;102383.41;6254128;28;20056;-73
2023/12/15 01:06:35;;;;;;;20.15;8.95;;;;;;;4.09;100.00;102388.63;6254437;28;20076;-73
2023/12/15 01:09:38;;;;;;;21.40;8.70;;;;;;;4.07;100.00;102391.19;6254434;28;20052;-72
2023/12/15 01:12:39;;;;;;;24.20;9.88;;;;;;;4.08;100.00;102392.91;6254609;28;20179;-73
2023/12/15 01:15:41;;;;;;;22.48;8.82;;;;;;;4.16;100.00;102392.94;6254117;28;20460;-72
2023/12/15 01:18:42;;;;;;;25.17;9.18;;;;;;;4.12;100.00;102387.72;6254323;28;20414;-73
2023/12/15 01:21:44;;;;;;;24.27;8.55;;;;;;;4.11;100.00;102392.06;6254143;28;20049;-73
2023/12/15 01:24:46;;;;;;;19.83;7.97;;;;;;;4.06;100.00;102397.28;6254281;28;20049;-73
2023/12/15 01:27:48;;;;;;;24.33;9.35;;;;;;;4.05;100.00;102410.28;6254078;28;20453;-72
2023/12/15 01:30:49;;;;;;;21.77;9.82;;;;;;;4.06;100.00;102412.00;6254320;28;20057;-71
2023/12/15 01:33:50;;;;;;;24.83;9.30;;;;;;;4.08;100.00;102405.06;6253886;28;20057;-73
2023/12/15 01:36:51;;;;;;;25.50;10.55;;;;;;;4.08;100.00;102410.28;6253465;28;20350;-72
2023/12/15 01:39:54;;;;;;;25.52;9.65;;;;;;;4.06;100.00;102407.69;6261256;28;20053;-72
2023/12/15 01:42:59;;;;;;;27.77;10.43;;;;;;;4.10;100.00;102405.94;6262712;28;20369;-72
2023/12/15 01:46:00;;;;;;;21.13;8.48;;;;;;;4.10;100.00;102411.16;6272310;28;20045;-72
2023/12/15 01:49:02;;;;;;;27.33;10.00;;;;;;;4.15;100.00;102419.81;6271896;28;20049;-71
2023/12/15 01:52:04;;;;;;;24.40;9.60;;;;;;;4.20;100.00;102422.41;6272487;28;20429;-73
2023/12/15 01:55:07;;;;;;;28.83;9.50;;;;;;;4.25;100.00;102429.34;6278166;28;20049;-72
2023/12/15 01:58:10;;;;;;;27.90;9.48;;;;;;;4.25;100.00;102431.09;6267115;28;20048;-72
2023/12/15 02:01:11;;;;;;;27.17;10.75;;;;;;;4.25;100.00;102429.34;6273293;28;20178;-72
2023/12/15 02:04:13;;;;;;;29.70;10.57;;;;;;;4.30;100.00;102425.00;6265249;28;20056;-73
2023/12/15 02:07:14;;;;;;;32.95;11.25;;;;;;;4.24;100.00;102432.84;6277237;28;20041;-73
2023/12/15 02:10:17;;;;;;;28.05;10.75;;;;;;;4.19;100.00;102431.97;6277911;28;20060;-71
2023/12/15 02:13:18;;;;;;;28.20;10.43;;;;;;;4.25;100.00;102428.50;6277763;28;20583;-73
2023/12/15 02:16:19;;;;;;;31.75;10.77;;;;;;;4.22;100.00;102428.47;6276347;28;20053;-72
2023/12/15 02:19:21;;;;;;;30.73;10.95;;;;;;;4.24;100.00;102432.84;6265819;28;20045;-72
2023/12/15 02:22:27;;;;;;;29.55;11.30;;;;;;;4.19;100.00;102431.97;6264238;22;20045;-74
2023/12/15 02:25:28;;;;;;;29.88;11.18;;;;;;;4.18;100.00;102426.75;6236181;28;20137;-74
2023/12/15 02:28:30;;;;;;;28.20;10.85;;;;;;;4.16;100.00;102425.88;6228118;28;20057;-74
2023/12/15 02:31:31;;;;;;;26.73;10.35;;;;;;;4.20;100.00;102431.09;6205515;28;20058;-74
2023/12/15 02:34:32;;;;;;;30.23;11.32;;;;;;;4.20;100.00;102427.63;6203734;28;20054;-74
2023/12/15 02:37:35;;;;;;;25.80;10.15;;;;;;;4.20;100.00;102433.69;6203283;28;20046;-74
2023/12/15 02:40:37;;;;;;;27.70;10.07;;;;;;;4.22;100.00;102434.56;6203510;28;20077;-74
2023/12/15 02:43:38;;;;;;;28.83;9.88;;;;;;;4.25;100.00;102442.38;6203273;28;20058;-74
2023/12/15 02:46:39;;;;;;;31.60;11.05;;;;;;;4.30;100.00;102444.97;6203437;28;20046;-74
2023/12/15 02:49:41;;;;;;;27.17;11.40;;;;;;;4.26;100.00;102438.03;6230915;28;20053;-74
2023/12/15 02:52:43;;;;;;;26.25;10.32;;;;;;;4.27;100.00;102437.16;6251576;28;20053;-74
2023/12/15 02:55:45;;;;;;;27.80;10.73;;;;;;;4.30;100.00;102424.16;6252013;28;20048;-74
2023/12/15 02:58:46;;;;;;;22.85;8.93;;;;;;;4.31;100.00;102434.59;6250284;28;20087;-74
2023/12/15 03:01:47;;;;;;;26.52;10.50;;;;;;;4.31;100.00;102434.59;6227386;28;20050;-74
2023/12/15 03:04:49;;;;;;;36.67;11.65;;;;;;;4.39;100.00;102420.69;6227367;28;20438;-75
2023/12/15 03:07:51;;;;;;;26.75;10.35;;;;;;;4.42;100.00;102418.09;6227025;28;20046;-74
2023/12/15 03:10:55;;;;;;;34.17;11.95;;;;;;;4.45;100.00;102425.88;6227027;28;20340;-74
2023/12/15 03:13:56;;;;;;;30.90;10.02;;;;;;;4.45;100.00;102434.56;6226931;28;20458;-75
2023/12/15 03:16:57;;;;;;;30.52;10.70;;;;;;;4.45;100.00;102438.88;6226277;28;20043;-74
2023/12/15 03:19:59;;;;;;;28.17;10.75;;;;;;;4.48;100.00;102450.16;6226644;28;20350;-75
2023/12/15 03:23:01;;;;;;;25.60;9.90;;;;;;;4.50;100.00;102444.97;6226703;28;20462;-74
2023/12/15 03:26:03;;;;;;;29.15;10.73;;;;;;;4.53;100.00;102448.41;6226847;28;20053;-75
2023/12/15 03:29:04;;;;;;;33.92;11.00;;;;;;;4.49;100.00;102454.50;6226674;28;20056;-75
2023/12/15 03:32:06;;;;;;;31.35;10.98;;;;;;;4.49;100.00;102448.44;6226494;28;20491;-75
2023/12/15 03:35:08;;;;;;;28.83;12.18;;;;;;;4.52;100.00;102451.91;6226319;28;20053;-74
2023/12/15 03:38:13;;;;;;;28.30;10.30;;;;;;;4.51;100.00;102450.19;6226143;28;20069;-74
2023/12/15 03:41:14;;;;;;;28.85;10.07;;;;;;;4.51;100.00;102450.19;6226386;28;20053;-74
2023/12/15 03:44:15;;;;;;;34.28;11.18;;;;;;;4.53;100.00;102455.38;6226150;28;20365;-74
2023/12/15 03:47:17;;;;;;;27.65;10.98;;;;;;;4.45;100.00;102458.00;6226315;28;20354;-74
2023/12/15 03:50:18;;;;;;;25.00;10.07;;;;;;;4.55;100.00;102456.25;6225947;28;20339;-74
2023/12/15 03:53:21;;;;;;;25.55;9.02;;;;;;;4.55;100.00;102456.25;6226022;28;20457;-72
2023/12/15 03:56:26;;;;;;;33.30;11.77;;;;;;;4.50;100.00;102455.41;6225885;28;20157;-72
2023/12/15 03:59:27;;;;;;;29.83;9.93;;;;;;;4.49;100.00;102464.03;6224191;28;20046;-72
2023/12/15 04:02:29;;;;;;;28.45;11.45;;;;;;;4.51;100.00;102467.53;6225694;28;20052;-72
2023/12/15 04:05:30;;;;;;;32.35;10.55;;;;;;;4.49;100.00;102464.03;6226014;28;20056;-72
2023/12/15 04:08:32;;;;;;;27.42;11.05;;;;;;;4.50;100.00;102468.41;6225693;28;20053;-72
2023/12/15 04:11:34;;;;;;;30.45;10.32;;;;;;;4.53;100.00;102471.00;6225902;28;20046;-72
2023/12/15 04:14:35;;;;;;;31.25;11.60;;;;;;;4.56;100.00;102457.97;6224993;28;20053;-72
2023/12/15 04:17:36;;;;;;;38.88;12.63;;;;;;;4.51;100.00;102454.53;6224778;28;20162;-72
2023/12/15 04:20:38;;;;;;;37.00;12.60;;;;;;;4.52;100.00;102461.44;6238573;28;20357;-72
2023/12/15 04:23:40;;;;;;;41.40;13.73;;;;;;;4.48;100.00;102459.72;6250222;28;20053;-72
2023/12/15 04:26:42;;;;;;;38.42;12.73;;;;;;;4.47;100.00;102463.19;6241299;28;20050;-72
2023/12/15 04:29:43;;;;;;;43.72;13.50;;;;;;;4.50;100.00;102471.00;6229484;28;20487;-72
2023/12/15 04:32:44;;;;;;;38.08;12.52;;;;;;;4.56;100.00;102473.59;6233510;28;20054;-72
2023/12/15 04:35:46;;;;;;;39.53;14.45;;;;;;;4.50;100.00;102469.28;6233708;28;20137;-72
2023/12/15 04:38:48;;;;;;;45.65;14.30;;;;;;;4.51;100.00;102480.56;6233252;28;20061;-71
2023/12/15 04:41:50;;;;;;;38.78;13.13;;;;;;;4.53;100.00;102479.66;6233641;28;20421;-72
2023/12/15 04:44:51;;;;;;;41.50;14.68;;;;;;;4.57;100.00;102486.59;6233476;28;20045;-71
2023/12/15 04:47:53;;;;;;;40.33;13.95;;;;;;;4.54;100.00;102491.84;6233667;28;20053;-72
2023/12/15 04:50:54;;;;;;;46.75;15.20;;;;;;;4.62;100.00;102491.81;6233538;28;20053;-72
2023/12/15 04:53:57;;;;;;;50.85;16.90;;;;;;;4.59;100.00;102491.84;6233137;28;20050;-72
2023/12/15 04:56:58;;;;;;;41.90;13.98;;;;;;;4.60;100.00;102493.56;6233520;28;20141;-71
2023/12/15 04:59:59;;;;;;;49.58;15.85;;;;;;;4.64;100.00;102490.09;6232946;28;20465;-71
2023/12/15 05:03:01;;;;;;;43.75;14.95;;;;;;;4.65;100.00;102493.56;6233402;28;20435;-71
2023/12/15 05:06:02;;;;;;;50.10;16.30;;;;;;;4.62;100.00;102491.81;6233062;28;20053;-72
2023/12/15 05:09:08;;;;;;;51.72;15.88;;;;;;;4.65;100.00;102507.44;6241448;28;20323;-71
2023/12/15 05:12:10;;;;;;;49.63;16.05;;;;;;;4.61;100.00;102500.50;6249190;28;20045;-72
2023/12/15 05:15:11;;;;;;;55.22;15.75;;;;;;;4.58;100.00;102505.69;6232836;28;20074;-72
2023/12/15 05:18:12;;;;;;;55.38;16.40;;;;;;;4.58;100.00;102513.50;6233124;28;20049;-72
2023/12/15 05:21:14;;;;;;;51.75;16.52;;;;;;;4.54;100.00;102514.38;6232788;28;20049;-71
2023/12/15 05:24:16;;;;;;;60.58;16.25;;;;;;;4.64;100.00;102513.53;6233071;28;20145;-72
2023/12/15 05:27:18;;;;;;;54.88;16.95;;;;;;;4.65;100.00;102501.38;6233109;28;20050;-72
2023/12/15 05:30:19;;;;;;;48.72;15.38;;;;;;;4.65;100.00;102507.44;6233269;28;20050;-72
2023/12/15 05:33:20;;;;;;;60.88;17.60;;;;;;;4.69;100.00;102509.19;6233064;28;20442;-72
2023/12/15 05:36:22;;;;;;;49.55;16.15;;;;;;;4.64;100.00;102515.28;6233222;28;20053;-72
2023/12/15 05:39:24;;;;;;;52.10;16.30;;;;;;;4.61;100.00;102531.75;6233018;28;20358;-72
2023/12/15 05:42:26;;;;;;;46.08;16.23;;;;;;;4.66;100.00;102543.03;6228184;28;20061;-72
2023/12/15 05:45:27;;;;;;;48.25;16.25;;;;;;;4.72;100.00;102544.75;6228620;28;20053;-71
2023/12/15 05:48:29;;;;;;;56.15;16.45;;;;;;;4.70;100.00;102549.09;6229237;28;21359;-70
2023/12/15 05:51:30;;;;;;;61.22;15.85;;;;;;;4.69;100.00;102549.97;6225961;28;20054;-71
2023/12/15 05:54:32;;;;;;;47.60;16.17;;;;;;;4.70;100.00;102549.97;6228359;28;20457;-71
2023/12/15 05:57:34;;;;;;;45.03;15.50;;;;;;;4.82;100.00;102555.19;6228779;28;20049;-70
2023/12/15 06:00:35;;;;;;;45.53;15.60;;;;;;;4.91;100.00;102556.06;6228214;28;20405;-70
2023/12/15 06:03:36;;;;;;;48.50;15.45;;;;;;;4.90;100.00;102567.31;6228110;28;20359;-70
2023/12/15 06:06:38;;;;;;;41.90;15.38;;;;;;;5.00;100.00;102572.53;6229222;28;20057;-70
2023/12/15 06:09:40;;;;;;;40.85;15.13;;;;;;;5.03;100.00;102575.13;6228014;28;20382;-70
2023/12/15 06:12:42;;;;;;;48.92;16.05;;;;;;;5.12;100.00;102578.59;6227830;28;20046;-70
2023/12/15 06:15:43;;;;;;;48.10;15.55;;;;;;;5.06;100.00;102577.75;6227644;28;20377;-70
2023/12/15 06:18:44;;;;;;;48.58;16.67;;;;;;;5.08;100.00;102588.16;6229643;28;20045;-70
2023/12/15 06:21:46;;;;;;;49.10;15.10;;;;;;;5.05;100.00;102589.03;6231910;28;20049;-70
2023/12/15 06:24:48;;;;;;;46.03;16.30;;;;;;;5.08;100.00;102590.75;6227803;28;20072;-70
2023/12/15 06:27:50;;;;;;;47.92;15.55;;;;;;;4.95;100.00;102592.53;6227790;28;20046;-70
2023/12/15 06:30:51;;;;;;;41.50;15.00;;;;;;;4.93;100.00;102602.06;6228188;28;20057;-70
2023/12/15 06:33:52;;;;;;;48.83;15.90;;;;;;;4.99;100.00;102601.19;6227175;28;20046;-70
2023/12/15 06:36:54;;;;;;;54.13;17.27;;;;;;;5.04;100.00;102604.66;6227420;28;20458;-70
2023/12/15 06:39:56;;;;;;;48.28;15.93;;;;;;;5.09;100.00;102601.19;6227511;28;20046;-70
2023/12/15 06:42:58;;;;;;;47.63;16.52;;;;;;;5.18;100.00;102600.31;6227994;28;20054;-70
2023/12/15 06:45:59;;;;;;;58.90;18.27;;;;;;;5.17;100.00;102597.69;6227092;28;20046;-70
2023/12/15 06:49:00;;;;;;;49.55;16.77;;;;;;;5.14;100.00;102603.81;6227124;28;20069;-70
2023/12/15 06:52:02;;;;;;;40.67;15.38;;;;;;;5.14;100.00;102609.00;6226895;28;20045;-70
2023/12/15 06:55:05;;;;;;;48.33;15.90;;;;;;;5.11;100.00;102605.53;6227442;28;20121;-70
2023/12/15 06:58:07;;;;;;;54.53;16.48;;;;;;;5.15;100.00;102609.88;6227043;28;20042;-70
2023/12/15 07:01:08;;;;;;;46.78;15.35;;;;;;;5.16;100.00;102615.06;6227111;28;20053;-70
2023/12/15 07:04:09;;;;;;;44.92;15.10;;;;;;;5.16;100.00;102609.88;6227005;28;20042;-72
2023/12/15 07:07:11;;;;;;;44.15;14.05;;;;;;;5.19;100.00;102617.69;6227414;28;20042;-71
2023/12/15 07:10:13;;;;;;;45.53;13.90;;;;;;;5.19;100.00;102616.81;6235870;28;20042;-70
2023/12/15 07:13:15;;;;;;;45.60;15.38;;;;;;;5.18;100.00;102615.06;6226122;28;20042;-71
2023/12/15 07:16:16;;;;;;;44.70;15.95;;;;;;;5.19;100.00;102622.91;6226647;28;20054;-70
2023/12/15 07:19:17;;;;;;;42.50;16.08;;;;;;;5.24;100.00;102620.28;6226864;28;20046;-70
2023/12/15 07:22:19;;;;;;;51.92;15.70;;;;;;;5.29;100.00;102616.81;6226956;28;20144;-70
2023/12/15 07:25:24;;;;;;;43.53;15.65;;;;;;;5.25;100.00;102614.19;6226907;28;20061;-70
2023/12/15 07:28:25;;;;;;;45.58;16.10;;;;;;;5.26;100.00;102623.75;6227049;28;20054;-70
2023/12/15 07:31:26;;;;;;;45.63;15.18;;;;;;;5.32;100.00;102621.16;6226925;28;20049;-70
2023/12/15 07:34:28;;;;;;;45.22;15.32;;;;;;;5.29;100.00;102619.41;6226623;28;20054;-70
2023/12/15 07:37:29;;;;;;;46.78;15.38;;;;;;;5.27;100.00;102617.69;6226665;28;20058;-71
2023/12/15 07:40:31;;;;;;;45.05;16.13;;;;;;;5.28;100.00;102632.47;6226610;28;20058;-70
2023/12/15 07:43:33;;;;;;;54.45;17.05;;;;;;;5.30;100.00;102643.72;6226433;28;20053;-71
2023/12/15 07:46:34;;;;;;;44.80;17.15;;;;;;;5.35;100.00;102645.47;6232074;28;20107;-71
2023/12/15 07:49:36;;;;;;;45.85;16.10;;;;;;;5.32;100.00;102647.22;6242901;28;20050;-71
2023/12/15 07:52:37;;;;;;;47.35;17.05;;;;;;;5.30;100.00;102655.03;6250741;28;20343;-71
2023/12/15 07:55:40;;;;;;;44.13;14.25;;;;;;;5.34;100.00;102659.38;6250950;28;20060;-71
2023/12/15 07:58:41;;;;;;;50.30;16.00;;;;;;;5.41;100.00;102662.00;6250661;28;20357;-71
2023/12/15 08:01:49;;;;;;;48.58;15.68;;;;;;;5.38;100.00;102659.38;6250840;28;20056;-71
2023/12/15 08:04:51;;;;;;;43.40;14.90;;;;;;;5.44;100.00;102661.97;6250006;28;20346;-71
2023/12/15 08:07:52;;;;;;;54.70;18.02;;;;;;;5.47;100.00;102665.44;6222392;28;20050;-71
2023/12/15 08:10:55;;;;;;;49.08;16.77;;;;;;;5.48;100.00;102671.53;6219660;28;20122;-71
2023/12/15 08:13:56;;;;;;;54.17;17.02;;;;;;;5.53;100.00;102670.66;6226023;28;20069;-71
2023/12/15 08:16:57;;;;;;;54.00;17.02;;;;;;;5.58;100.00;102689.75;6232304;28;20049;-71
2023/12/15 08:19:59;;;;;;;51.80;15.48;;;;;;;5.55;100.00;102692.38;6230160;28;20046;-71
2023/12/15 08:23:00;;;;;;;47.55;15.98;;;;;;;5.57;100.00;102700.19;6232742;28;20060;-70
2023/12/15 08:26:03;;;;;;;56.00;17.30;;;;;;;5.59;100.00;102701.94;6227650;28;20061;-71
2023/12/15 08:29:04;;;;;;;51.85;16.17;;;;;;;5.65;100.00;102711.50;6238914;28;20350;-71
2023/12/15 08:32:05;;;;;;;52.10;16.42;;;;;;;5.65;100.00;102721.94;6242516;28;20049;-71
2023/12/15 08:35:08;;;;;;;47.67;16.73;;;;;;;5.77;100.00;102729.75;6240482;28;20052;-70
2023/12/15 08:38:09;;;;;;;57.65;16.95;;;;;;;5.77;100.00;102736.72;6238851;28;20042;-70
2023/12/15 08:41:12;;;;;;;49.55;16.42;;;;;;;5.87;100.00;102742.78;6225307;28;20065;-71
2023/12/15 08:44:13;;;;;;;46.28;15.75;;;;;;;5.94;100.00;102741.91;6225561;28;20050;-70
2023/12/15 08:47:15;;;;;;;51.28;15.18;;;;;;;5.97;100.00;102741.91;6225544;28;20057;-71
2023/12/15 08:50:16;;;;;;;46.83;15.52;;;;;;;5.97;100.00;102761.06;6227080;28;20166;-71
2023/12/15 08:53:18;;;;;;;44.90;15.75;;;;;;;6.05;100.00;102763.66;6239996;28;20057;-71
2023/12/15 08:56:20;;;;;;;58.97;15.63;;;;;;;6.05;100.00;102772.34;6230394;28;20058;-70
2023/12/15 08:59:22;;;;;;;46.25;15.30;;;;;;;6.03;100.00;102766.25;6231347;28;20430;-70
2023/12/15 09:02:23;;;;;;;54.17;15.05;;;;;;;6.03;100.00;102776.69;6232359;28;20129;-71
2023/12/15 09:05:25;;;;;;;46.90;15.98;;;;;;;6.08;100.00;102785.38;6231392;28;20049;-71
2023/12/15 09:08:27;;;;;;;52.90;16.80;;;;;;;6.11;100.00;102784.50;6229566;28;20045;-71
2023/12/15 09:11:29;;;;;;;55.42;17.90;;;;;;;6.22;100.00;102797.53;6237649;28;20116;-71
2023/12/15 09:14:31;;;;;;;58.22;16.73;;;;;;;6.19;100.00;102805.41;6230095;28;20049;-72
2023/12/15 09:17:32;;;;;;;57.78;16.90;;;;;;;6.21;100.00;102804.50;6246809;28;20455;-71
2023/12/15 09:20:34;;;;;;;51.88;18.08;;;;;;;6.24;100.00;102811.47;6239993;28;20041;-71
2023/12/15 09:23:35;;;;;;;68.10;18.10;;;;;;;6.28;100.00;102816.69;6239470;28;20052;-72
2023/12/15 09:26:39;;;;;;;65.35;17.20;;;;;;;6.33;100.00;102822.75;6240983;28;20048;-72
2023/12/15 09:29:41;;;;;;;57.15;16.70;;;;;;;6.37;100.00;102820.16;6244584;28;20508;-72
2023/12/15 09:32:42;;;;;;;55.47;16.95;;;;;;;6.40;100.00;102836.66;6237167;28;20050;-72
2023/12/15 09:35:44;;;;;;;50.10;16.83;;;;;;;6.44;100.00;102845.34;6252168;28;20049;-72
2023/12/15 09:38:45;;;;;;;49.60;16.88;;;;;;;6.44;100.00;102842.75;6235994;28;20050;-72
2023/12/15 09:41:48;;;;;;;56.53;18.48;;;;;;;6.46;100.00;102857.56;6240164;28;20054;-72
2023/12/15 09:44:49;;;;;;;50.72;16.42;;;;;;;6.48;100.00;102865.38;6244271;28;20056;-72
2023/12/15 09:47:51;;;;;;;50.75;16.52;;;;;;;6.48;100.00;102868.00;6253527;28;20050;-73
2023/12/15 09:50:56;;;;;;;56.63;17.70;;;;;;;6.48;100.00;102868.84;6253366;28;20353;-73
2023/12/15 09:53:57;;;;;;;52.38;17.67;;;;;;;6.49;100.00;102872.34;6253117;28;20045;-73
2023/12/15 09:57:01;;;;;;;58.53;18.65;;;;;;;6.54;100.00;102873.19;6253534;28;20056;-72
2023/12/15 10:00:03;;;;;;;58.95;16.88;;;;;;;6.53;100.00;102871.47;6230387;28;20458;-72
2023/12/15 10:03:04;;;;;;;59.25;17.13;;;;;;;6.67;100.00;102881.88;6227505;28;20086;-71
2023/12/15 10:06:06;;;;;;;56.35;17.20;;;;;;;6.64;100.00;102888.00;6244373;28;20327;-70
2023/12/15 10:09:12;;;;;;;50.08;15.75;;;;;;;6.72;100.00;102880.09;6228543;28;20046;-71
2023/12/15 10:12:15;;;;;;;59.88;18.23;;;;;;;6.73;100.00;102884.50;6227844;28;20050;-70
2023/12/15 10:15:18;;;;;;;51.30;16.25;;;;;;;6.66;100.00;102878.38;6229298;28;20050;-70
2023/12/15 10:18:19;;;;;;;53.70;16.55;;;;;;;6.71;100.00;102894.91;6239172;28;20049;-71
2023/12/15 10:21:21;;;;;;;73.45;17.60;;;;;;;6.75;100.00;102893.19;6244425;28;20049;-72
2023/12/15 10:24:23;;;;;;;55.95;16.98;;;;;;;6.80;100.00;102899.25;6252636;28;20053;-72
2023/12/15 10:27:26;;;;;;;55.75;16.75;;;;;;;6.86;100.00;102897.50;6250966;28;20049;-72
2023/12/15 10:30:27;;;;;;;45.88;15.52;;;;;;;6.86;100.00;102904.47;6240326;28;20048;-72
2023/12/15 10:33:29;;;;;;;54.28;16.20;;;;;;;6.88;100.00;102900.09;6236073;28;20049;-72
2023/12/15 10:36:33;;;;;;;52.30;16.30;;;;;;;6.94;100.00;102905.31;6230973;28;20049;-70
2023/12/15 10:39:34;;;;;;;56.22;14.90;;;;;;;6.87;100.00;102911.44;6232155;28;20038;-75
2023/12/15 10:42:38;;;;;;;52.40;14.98;;;;;;;6.96;100.00;102910.53;6229238;28;20042;-76
2023/12/15 10:45:40;;;;;;;54.25;15.38;;;;;;;6.99;100.00;102908.75;6231344;28;20042;-75
2023/12/15 10:48:42;;;;;;;48.28;13.75;;;;;;;7.02;100.00;102906.16;6229453;28;20061;-76
2023/12/15 10:51:47;;;;;;;47.67;13.93;;;;;;;7.07;100.00;102901.78;6231204;28;20050;-73
2023/12/15 10:54:49;;;;;;;49.00;15.55;;;;;;;7.04;100.00;102904.41;6227252;28;20077;-75
2023/12/15 10:57:52;;;;;;;59.47;14.85;;;;;;;7.07;100.00;102907.00;6226802;28;20362;-75
2023/12/15 11:00:55;;;;;;;49.47;13.10;;;;;;;7.12;100.00;102897.38;6233049;28;20049;-74
2023/12/15 11:03:56;;;;;;;50.95;14.57;;;;;;;7.16;100.00;102903.47;6226906;28;20046;-73
2023/12/15 11:06:57;;;;;;;45.05;13.82;;;;;;;7.17;100.00;102904.34;6226269;28;20112;-72
2023/12/15 11:09:59;;;;;;;51.47;14.20;;;;;;;7.25;100.00;102911.28;6224757;28;20058;-72
2023/12/15 11:13:02;;;;;;;47.05;13.98;;;;;;;7.28;100.00;102908.66;6224248;28;20052;-71
2023/12/15 11:16:04;;;;;;;43.40;13.35;;;;;;;7.35;100.00;102901.63;6231751;28;20370;-71
2023/12/15 11:19:06;;;;;;;52.92;15.15;;;;;;;7.33;100.00;102912.13;6232250;28;20050;-74
2023/12/15 11:22:08;;;;;;;47.50;13.25;;;;;;;7.37;100.00;102905.13;6245158;28;20142;-74
2023/12/15 11:25:18;;;;;;;40.92;13.48;;;;;;;7.38;100.00;102915.56;6242973;28;20064;-74
2023/12/15 11:28:21;;;;;;;44.50;14.00;;;;;;;7.42;100.00;102915.56;6246225;28;20521;-76
2023/12/15 11:31:24;;;;;;;42.53;13.63;;;;;;;7.39;100.00;102916.44;6245285;28;20168;-75
2023/12/15 11:34:39;;;;;;;39.05;11.25;;;;;;;7.44;100.00;102927.75;6238246;28;20439;-76
2023/12/15 11:37:42;;;;;;;44.42;13.70;;;;;;;7.44;100.00;102926.88;6239999;28;20060;-75
2023/12/15 11:40:44;;;;;;;60.47;14.20;;;;;;;7.35;100.00;102915.59;6250657;28;20053;-75
2023/12/15 11:43:47;;;;;;;40.65;12.57;;;;;;;7.45;100.00;102932.13;6237889;28;20052;-74
2023/12/15 11:46:48;;;;;;;42.50;12.32;;;;;;;7.48;100.00;102928.59;6250033;28;20092;-75
2023/12/15 11:49:51;;;;;;;56.63;12.38;;;;;;;7.47;100.00;102932.09;6251084;28;20042;-74
2023/12/15 11:52:55;;;;;;;52.60;11.80;;;;;;;7.46;100.00;102931.25;6250837;28;20610;-74
2023/12/15 11:55:57;;;;;;;42.95;12.40;;;;;;;7.49;100.00;102927.72;6250810;28;20053;-75
2023/12/15 11:59:02;;;;;;;36.05;11.82;;;;;;;7.54;100.00;102937.31;6250458;28;20046;-75
2023/12/15 12:02:05;;;;;;;33.55;11.82;;;;;;;7.53;100.00;102950.38;6250799;28;20049;-75
2023/12/15 12:05:08;;;;;;;33.30;11.35;;;;;;;7.55;100.00;102946.03;6250425;28;20045;-75
2023/12/15 12:08:10;;;;;;;44.80;11.40;;;;;;;7.59;100.00;102946.00;6229866;28;20327;-75
2023/12/15 12:11:11;;;;;;;43.90;11.20;;;;;;;7.59;100.00;102942.50;6231259;28;20053;-75
2023/12/15 12:14:14;;;;;;;34.33;10.23;;;;;;;7.61;100.00;102944.22;6236884;28;20450;-75
2023/12/15 12:17:16;;;;;;;39.92;11.93;;;;;;;7.66;100.00;102936.34;6242186;28;20056;-75
2023/12/15 12:20:18;;;;;;;32.33;10.43;;;;;;;7.71;100.00;102931.09;6250361;28;20049;-75
2023/12/15 12:23:23;;;;;;;37.58;10.95;;;;;;;7.74;100.00;102941.53;6250367;28;20053;-76
2023/12/15 12:26:26;;;;;;;38.35;11.45;;;;;;;7.70;100.00;102937.22;6250286;28;20467;-75
2023/12/15 12:29:32;;;;;;;36.55;11.00;;;;;;;7.65;100.00;102939.00;6242893;28;20046;-74
2023/12/15 12:32:33;;;;;;;45.63;10.93;;;;;;;7.65;100.00;102946.84;6242799;28;20046;-74
2023/12/15 12:35:35;;;;;;;33.35;10.45;;;;;;;7.68;100.00;102936.38;6226845;28;20073;-76
2023/12/15 12:38:37;;;;;;;35.28;11.80;;;;;;;7.65;100.00;102944.22;6224481;28;20129;-76
2023/12/15 12:41:38;;;;;;;30.52;9.45;;;;;;;7.65;100.00;102949.44;6229384;28;20054;-76
2023/12/15 12:44:42;;;;;;;43.03;10.18;;;;;;;7.72;100.00;102938.94;6238490;28;20050;-76
2023/12/15 12:47:47;;;;;;;31.73;8.98;;;;;;;7.76;100.00;102943.25;6240825;28;20053;-75
2023/12/15 12:50:48;;;;;;;34.15;10.13;;;;;;;7.74;100.00;102941.53;6234223;28;20045;-75
2023/12/15 12:53:50;;;;;;;33.05;9.70;;;;;;;7.75;100.00;102944.16;6242686;28;20569;-75
2023/12/15 12:56:51;;;;;;;39.75;10.45;;;;;;;7.74;100.00;102947.66;6242461;28;20057;-75
2023/12/15 12:59:54;;;;;;;47.15;9.77;;;;;;;7.77;100.00;102967.72;6228418;28;20046;-75
2023/12/15 13:02:55;;;;;;;26.92;10.18;;;;;;;7.80;100.00;102967.66;6235740;28;20050;-75
2023/12/15 13:05:57;;;;;;;45.60;10.93;;;;;;;7.76;100.00;102971.19;6241895;28;20458;-75
2023/12/15 13:08:58;;;;;;;30.17;10.35;;;;;;;7.75;100.00;102966.84;6240689;28;20050;-75
2023/12/15 13:12:00;;;;;;;39.63;11.27;;;;;;;7.80;100.00;102968.53;6235954;28;20065;-75
2023/12/15 13:15:02;;;;;;;37.78;10.40;;;;;;;7.78;100.00;102965.06;6243705;28;20060;-75
2023/12/15 13:18:06;;;;;;;41.30;11.50;;;;;;;7.77;100.00;102958.09;6231391;28;20133;-74
2023/12/15 13:21:08;;;;;;;37.17;10.70;;;;;;;7.71;100.00;102960.75;6245832;28;20056;-74
2023/12/15 13:24:10;;;;;;;34.40;10.75;;;;;;;7.72;100.00;102965.13;6232193;28;20452;-74
2023/12/15 13:27:11;;;;;;;41.42;10.65;;;;;;;7.66;100.00;102967.75;6233349;28;20053;-74
2023/12/15 13:30:14;;;;;;;39.97;10.25;;;;;;;7.61;100.00;102978.25;6229846;28;20055;-75
2023/12/15 13:33:16;;;;;;;33.42;8.80;;;;;;;7.72;100.00;102972.06;6224695;28;20061;-73
2023/12/15 13:36:18;;;;;;;44.22;10.77;;;;;;;7.69;100.00;102961.66;6231798;28;20454;-74
2023/12/15 13:39:21;;;;;;;37.20;10.48;;;;;;;7.70;100.00;102966.00;6234541;28;20046;-74
2023/12/15 13:42:22;;;;;;;37.50;10.35;;;;;;;7.73;100.00;102973.84;6237324;28;20510;-74
2023/12/15 13:45:25;;;;;;;37.35;11.20;;;;;;;7.77;100.00;102971.19;6245756;28;20050;-74
2023/12/15 13:48:27;;;;;;;42.63;9.23;;;;;;;7.87;100.00;102975.50;6240997;28;20041;-74